sensor_id;sensor_type;location;lat;lon;timestamp;temperature;humidity
73277;DHT22;61501;43.316;5.372;2022-10-18T00:00:38;21.10;86.30
73277;DHT22;61501;43.316;5.372;2022-10-18T00:03:04;21.20;86.90
73277;DHT22;61501;43.316;5.372;2022-10-18T00:05:30;21.10;86.20
73277;DHT22;61501;43.316;5.372;2022-10-18T00:07:56;21.10;86.40
73277;DHT22;61501;43.316;5.372;2022-10-18T00:10:22;21.10;86.50
73277;DHT22;61501;43.316;5.372;2022-10-18T00:12:49;21.20;86.90
73277;DHT22;61501;43.316;5.372;2022-10-18T00:15:15;21.20;86.70
73277;DHT22;61501;43.316;5.372;2022-10-18T00:17:41;21.10;87.80
73277;DHT22;61501;43.316;5.372;2022-10-18T00:20:08;21.10;87.80
73277;DHT22;61501;43.316;5.372;2022-10-18T00:22:36;21.10;87.90
73277;DHT22;61501;43.316;5.372;2022-10-18T00:25:02;21.10;88.00
73277;DHT22;61501;43.316;5.372;2022-10-18T00:27:28;21.10;87.50
73277;DHT22;61501;43.316;5.372;2022-10-18T00:29:54;21.10;86.80
73277;DHT22;61501;43.316;5.372;2022-10-18T00:32:20;21.00;87.50
73277;DHT22;61501;43.316;5.372;2022-10-18T00:34:45;21.00;88.10
73277;DHT22;61501;43.316;5.372;2022-10-18T00:37:11;20.90;88.70
73277;DHT22;61501;43.316;5.372;2022-10-18T00:39:37;20.80;89.30
73277;DHT22;61501;43.316;5.372;2022-10-18T00:42:02;20.80;89.80
73277;DHT22;61501;43.316;5.372;2022-10-18T00:47:03;20.70;90.00
73277;DHT22;61501;43.316;5.372;2022-10-18T00:49:39;20.70;90.10
73277;DHT22;61501;43.316;5.372;2022-10-18T00:52:16;20.70;90.10
73277;DHT22;61501;43.316;5.372;2022-10-18T00:54:44;20.70;90.00
73277;DHT22;61501;43.316;5.372;2022-10-18T00:57:11;20.70;90.10
73277;DHT22;61501;43.316;5.372;2022-10-18T00:59:37;20.60;90.00
73277;DHT22;61501;43.316;5.372;2022-10-18T01:02:04;20.60;90.10
73277;DHT22;61501;43.316;5.372;2022-10-18T01:04:30;20.60;90.20
73277;DHT22;61501;43.316;5.372;2022-10-18T01:12:50;20.60;90.00
73277;DHT22;61501;43.316;5.372;2022-10-18T01:15:49;20.50;89.60
73277;DHT22;61501;43.316;5.372;2022-10-18T01:22:10;20.50;90.10
73277;DHT22;61501;43.316;5.372;2022-10-18T01:32:53;20.50;89.60
73277;DHT22;61501;43.316;5.372;2022-10-18T01:35:23;20.50;89.00
73277;DHT22;61501;43.316;5.372;2022-10-18T01:37:51;20.50;89.00
73277;DHT22;61501;43.316;5.372;2022-10-18T01:40:19;20.40;88.60
73277;DHT22;61501;43.316;5.372;2022-10-18T01:42:46;20.50;89.00
73277;DHT22;61501;43.316;5.372;2022-10-18T01:45:14;20.40;89.20
73277;DHT22;61501;43.316;5.372;2022-10-18T01:47:41;20.40;89.20
73277;DHT22;61501;43.316;5.372;2022-10-18T01:50:07;20.40;88.40
73277;DHT22;61501;43.316;5.372;2022-10-18T01:52:33;20.40;88.80
73277;DHT22;61501;43.316;5.372;2022-10-18T01:54:59;20.40;88.40
73277;DHT22;61501;43.316;5.372;2022-10-18T01:57:39;20.40;88.00
73277;DHT22;61501;43.316;5.372;2022-10-18T02:00:23;20.30;88.20
73277;DHT22;61501;43.316;5.372;2022-10-18T02:03:05;20.30;87.40
73277;DHT22;61501;43.316;5.372;2022-10-18T02:06:06;20.30;87.50
73277;DHT22;61501;43.316;5.372;2022-10-18T02:08:35;20.30;88.30
73277;DHT22;61501;43.316;5.372;2022-10-18T02:11:05;20.20;87.40
73277;DHT22;61501;43.316;5.372;2022-10-18T02:13:47;20.20;87.30
73277;DHT22;61501;43.316;5.372;2022-10-18T02:16:43;20.20;88.40
73277;DHT22;61501;43.316;5.372;2022-10-18T02:19:29;20.20;87.70
73277;DHT22;61501;43.316;5.372;2022-10-18T02:21:58;20.20;87.30
73277;DHT22;61501;43.316;5.372;2022-10-18T02:24:41;20.20;87.10
73277;DHT22;61501;43.316;5.372;2022-10-18T02:27:07;20.20;86.60
73277;DHT22;61501;43.316;5.372;2022-10-18T02:29:34;20.20;86.90
73277;DHT22;61501;43.316;5.372;2022-10-18T02:35:10;20.20;86.10
73277;DHT22;61501;43.316;5.372;2022-10-18T02:37:39;20.20;86.10
73277;DHT22;61501;43.316;5.372;2022-10-18T02:40:07;20.20;86.40
73277;DHT22;61501;43.316;5.372;2022-10-18T02:42:39;20.10;86.10
73277;DHT22;61501;43.316;5.372;2022-10-18T02:45:08;20.10;86.20
73277;DHT22;61501;43.316;5.372;2022-10-18T02:47:35;20.00;86.10
73277;DHT22;61501;43.316;5.372;2022-10-18T02:50:00;20.00;85.70
73277;DHT22;61501;43.316;5.372;2022-10-18T02:52:26;20.00;86.30
73277;DHT22;61501;43.316;5.372;2022-10-18T02:54:52;20.00;86.00
73277;DHT22;61501;43.316;5.372;2022-10-18T02:57:17;19.90;85.90
73277;DHT22;61501;43.316;5.372;2022-10-18T02:59:43;19.90;86.20
73277;DHT22;61501;43.316;5.372;2022-10-18T03:02:08;19.90;86.40
73277;DHT22;61501;43.316;5.372;2022-10-18T03:04:34;19.80;86.40
73277;DHT22;61501;43.316;5.372;2022-10-18T03:07:00;19.90;86.40
73277;DHT22;61501;43.316;5.372;2022-10-18T03:09:25;19.90;86.80
73277;DHT22;61501;43.316;5.372;2022-10-18T03:11:51;19.90;86.50
73277;DHT22;61501;43.316;5.372;2022-10-18T03:14:16;19.90;86.50
73277;DHT22;61501;43.316;5.372;2022-10-18T03:16:42;19.80;86.20
73277;DHT22;61501;43.316;5.372;2022-10-18T03:19:08;19.70;86.30
73277;DHT22;61501;43.316;5.372;2022-10-18T03:21:33;19.70;86.70
73277;DHT22;61501;43.316;5.372;2022-10-18T03:23:59;19.70;86.70
73277;DHT22;61501;43.316;5.372;2022-10-18T03:26:25;19.70;86.50
73277;DHT22;61501;43.316;5.372;2022-10-18T03:28:51;19.70;86.70
73277;DHT22;61501;43.316;5.372;2022-10-18T03:31:16;19.60;86.60
73277;DHT22;61501;43.316;5.372;2022-10-18T03:33:42;19.70;87.30
73277;DHT22;61501;43.316;5.372;2022-10-18T03:36:07;19.70;87.10
73277;DHT22;61501;43.316;5.372;2022-10-18T03:38:33;19.60;87.30
73277;DHT22;61501;43.316;5.372;2022-10-18T03:40:58;19.70;87.10
73277;DHT22;61501;43.316;5.372;2022-10-18T03:43:24;19.70;87.30
73277;DHT22;61501;43.316;5.372;2022-10-18T03:45:50;19.80;87.00
73277;DHT22;61501;43.316;5.372;2022-10-18T03:48:16;19.80;87.00
73277;DHT22;61501;43.316;5.372;2022-10-18T03:50:42;19.70;86.20
73277;DHT22;61501;43.316;5.372;2022-10-18T03:53:08;19.70;87.30
73277;DHT22;61501;43.316;5.372;2022-10-18T03:55:33;19.70;86.20
73277;DHT22;61501;43.316;5.372;2022-10-18T03:58:00;19.80;86.50
73277;DHT22;61501;43.316;5.372;2022-10-18T04:00:26;19.80;86.90
73277;DHT22;61501;43.316;5.372;2022-10-18T04:02:52;19.70;85.80
73277;DHT22;61501;43.316;5.372;2022-10-18T04:05:17;19.70;86.10
73277;DHT22;61501;43.316;5.372;2022-10-18T04:07:43;19.80;86.40
73277;DHT22;61501;43.316;5.372;2022-10-18T04:10:09;19.80;86.80
73277;DHT22;61501;43.316;5.372;2022-10-18T04:12:34;19.70;87.10
73277;DHT22;61501;43.316;5.372;2022-10-18T04:15:01;19.70;87.70
73277;DHT22;61501;43.316;5.372;2022-10-18T04:17:26;19.70;87.40
73277;DHT22;61501;43.316;5.372;2022-10-18T04:19:52;19.70;86.70
73277;DHT22;61501;43.316;5.372;2022-10-18T04:22:17;19.60;87.00
73277;DHT22;61501;43.316;5.372;2022-10-18T04:24:43;19.60;86.60
73277;DHT22;61501;43.316;5.372;2022-10-18T04:27:09;19.60;86.80
73277;DHT22;61501;43.316;5.372;2022-10-18T04:29:34;19.60;87.40
73277;DHT22;61501;43.316;5.372;2022-10-18T04:32:00;19.60;86.90
73277;DHT22;61501;43.316;5.372;2022-10-18T04:34:26;19.60;86.40
73277;DHT22;61501;43.316;5.372;2022-10-18T04:36:52;19.60;87.20
73277;DHT22;61501;43.316;5.372;2022-10-18T04:39:18;19.60;86.20
73277;DHT22;61501;43.316;5.372;2022-10-18T04:41:44;19.50;86.20
73277;DHT22;61501;43.316;5.372;2022-10-18T04:44:10;19.60;86.10
73277;DHT22;61501;43.316;5.372;2022-10-18T04:46:36;19.50;86.10
73277;DHT22;61501;43.316;5.372;2022-10-18T04:49:02;19.50;86.20
73277;DHT22;61501;43.316;5.372;2022-10-18T04:51:28;19.50;86.40
73277;DHT22;61501;43.316;5.372;2022-10-18T04:53:54;19.50;86.60
73277;DHT22;61501;43.316;5.372;2022-10-18T04:56:20;19.50;86.50
73277;DHT22;61501;43.316;5.372;2022-10-18T04:58:46;19.50;86.70
73277;DHT22;61501;43.316;5.372;2022-10-18T05:01:11;19.50;86.60
73277;DHT22;61501;43.316;5.372;2022-10-18T05:03:37;19.50;87.40
73277;DHT22;61501;43.316;5.372;2022-10-18T05:06:03;19.50;87.30
73277;DHT22;61501;43.316;5.372;2022-10-18T05:08:31;19.50;86.60
73277;DHT22;61501;43.316;5.372;2022-10-18T05:10:57;19.50;86.80
73277;DHT22;61501;43.316;5.372;2022-10-18T05:13:22;19.40;86.80
73277;DHT22;61501;43.316;5.372;2022-10-18T05:15:48;19.50;87.30
73277;DHT22;61501;43.316;5.372;2022-10-18T05:18:14;19.40;86.90
73277;DHT22;61501;43.316;5.372;2022-10-18T05:20:39;19.40;86.80
73277;DHT22;61501;43.316;5.372;2022-10-18T05:23:05;19.50;86.90
73277;DHT22;61501;43.316;5.372;2022-10-18T05:25:31;19.50;87.30
73277;DHT22;61501;43.316;5.372;2022-10-18T05:27:56;19.50;86.50
73277;DHT22;61501;43.316;5.372;2022-10-18T05:30:22;19.50;86.80
73277;DHT22;61501;43.316;5.372;2022-10-18T05:32:47;19.50;86.80
73277;DHT22;61501;43.316;5.372;2022-10-18T05:35:13;19.40;86.50
73277;DHT22;61501;43.316;5.372;2022-10-18T05:37:39;19.40;86.60
73277;DHT22;61501;43.316;5.372;2022-10-18T05:40:05;19.40;86.90
73277;DHT22;61501;43.316;5.372;2022-10-18T05:42:30;19.40;86.40
73277;DHT22;61501;43.316;5.372;2022-10-18T05:44:56;19.40;87.50
73277;DHT22;61501;43.316;5.372;2022-10-18T05:47:21;19.30;86.60
73277;DHT22;61501;43.316;5.372;2022-10-18T05:49:47;19.30;87.10
73277;DHT22;61501;43.316;5.372;2022-10-18T05:52:13;19.30;87.10
73277;DHT22;61501;43.316;5.372;2022-10-18T05:54:38;19.30;87.20
73277;DHT22;61501;43.316;5.372;2022-10-18T05:57:04;19.30;87.40
73277;DHT22;61501;43.316;5.372;2022-10-18T05:59:30;19.20;87.60
73277;DHT22;61501;43.316;5.372;2022-10-18T06:01:55;19.30;87.60
73277;DHT22;61501;43.316;5.372;2022-10-18T06:04:21;19.30;87.70
73277;DHT22;61501;43.316;5.372;2022-10-18T06:06:46;19.30;87.70
73277;DHT22;61501;43.316;5.372;2022-10-18T06:09:12;19.30;87.50
73277;DHT22;61501;43.316;5.372;2022-10-18T06:11:38;19.20;87.60
73277;DHT22;61501;43.316;5.372;2022-10-18T06:14:03;19.10;88.40
73277;DHT22;61501;43.316;5.372;2022-10-18T06:16:29;19.10;87.80
73277;DHT22;61501;43.316;5.372;2022-10-18T06:18:56;19.20;87.80
73277;DHT22;61501;43.316;5.372;2022-10-18T06:21:23;19.20;87.80
73277;DHT22;61501;43.316;5.372;2022-10-18T06:23:56;19.30;87.90
73277;DHT22;61501;43.316;5.372;2022-10-18T06:26:22;19.40;86.90
73277;DHT22;61501;43.316;5.372;2022-10-18T06:28:48;19.40;86.70
73277;DHT22;61501;43.316;5.372;2022-10-18T06:31:15;19.40;86.70
73277;DHT22;61501;43.316;5.372;2022-10-18T06:33:40;19.50;86.40
73277;DHT22;61501;43.316;5.372;2022-10-18T06:36:12;19.50;85.90
73277;DHT22;61501;43.316;5.372;2022-10-18T06:38:38;19.60;85.70
73277;DHT22;61501;43.316;5.372;2022-10-18T06:41:04;19.60;85.60
73277;DHT22;61501;43.316;5.372;2022-10-18T06:43:30;19.60;85.40
73277;DHT22;61501;43.316;5.372;2022-10-18T06:45:56;19.60;85.50
73277;DHT22;61501;43.316;5.372;2022-10-18T06:48:22;19.70;84.90
73277;DHT22;61501;43.316;5.372;2022-10-18T06:50:56;19.60;85.10
73277;DHT22;61501;43.316;5.372;2022-10-18T06:53:23;19.60;85.60
73277;DHT22;61501;43.316;5.372;2022-10-18T06:55:49;19.60;86.20
73277;DHT22;61501;43.316;5.372;2022-10-18T06:58:15;19.60;86.10
73277;DHT22;61501;43.316;5.372;2022-10-18T07:00:40;19.70;86.00
73277;DHT22;61501;43.316;5.372;2022-10-18T07:03:06;19.80;85.50
73277;DHT22;61501;43.316;5.372;2022-10-18T07:05:32;19.80;85.00
73277;DHT22;61501;43.316;5.372;2022-10-18T07:07:57;19.90;85.10
73277;DHT22;61501;43.316;5.372;2022-10-18T07:10:24;20.00;84.50
73277;DHT22;61501;43.316;5.372;2022-10-18T07:12:50;20.00;84.80
73277;DHT22;61501;43.316;5.372;2022-10-18T07:15:16;20.10;84.30
73277;DHT22;61501;43.316;5.372;2022-10-18T07:17:43;20.20;84.30
73277;DHT22;61501;43.316;5.372;2022-10-18T07:20:10;20.30;83.50
73277;DHT22;61501;43.316;5.372;2022-10-18T07:22:36;20.30;83.20
73277;DHT22;61501;43.316;5.372;2022-10-18T07:25:04;20.40;83.40
73277;DHT22;61501;43.316;5.372;2022-10-18T07:27:29;20.40;82.10
73277;DHT22;61501;43.316;5.372;2022-10-18T07:29:55;20.50;83.20
73277;DHT22;61501;43.316;5.372;2022-10-18T07:32:21;20.60;82.10
73277;DHT22;61501;43.316;5.372;2022-10-18T07:34:46;20.60;82.10
73277;DHT22;61501;43.316;5.372;2022-10-18T07:37:12;20.70;81.40
73277;DHT22;61501;43.316;5.372;2022-10-18T07:39:37;20.80;81.90
73277;DHT22;61501;43.316;5.372;2022-10-18T07:42:03;20.90;80.90
73277;DHT22;61501;43.316;5.372;2022-10-18T07:44:29;21.00;80.80
73277;DHT22;61501;43.316;5.372;2022-10-18T07:46:54;21.10;80.90
73277;DHT22;61501;43.316;5.372;2022-10-18T07:49:20;21.20;81.30
73277;DHT22;61501;43.316;5.372;2022-10-18T07:51:45;21.30;80.90
73277;DHT22;61501;43.316;5.372;2022-10-18T07:54:11;21.30;80.30
73277;DHT22;61501;43.316;5.372;2022-10-18T07:56:37;21.40;79.70
73277;DHT22;61501;43.316;5.372;2022-10-18T07:59:02;21.50;79.00
73277;DHT22;61501;43.316;5.372;2022-10-18T08:01:28;21.50;79.10
73277;DHT22;61501;43.316;5.372;2022-10-18T08:03:53;21.50;79.70
73277;DHT22;61501;43.316;5.372;2022-10-18T08:06:20;21.60;79.70
73277;DHT22;61501;43.316;5.372;2022-10-18T08:08:47;21.70;79.70
73277;DHT22;61501;43.316;5.372;2022-10-18T08:11:15;21.80;79.40
73277;DHT22;61501;43.316;5.372;2022-10-18T08:13:41;21.90;78.70
73277;DHT22;61501;43.316;5.372;2022-10-18T08:16:09;22.00;79.10
73277;DHT22;61501;43.316;5.372;2022-10-18T08:18:36;22.00;78.90
73277;DHT22;61501;43.316;5.372;2022-10-18T08:21:04;22.10;78.80
73277;DHT22;61501;43.316;5.372;2022-10-18T08:23:30;22.20;78.30
73277;DHT22;61501;43.316;5.372;2022-10-18T08:25:55;22.20;77.10
73277;DHT22;61501;43.316;5.372;2022-10-18T08:28:21;22.30;77.00
73277;DHT22;61501;43.316;5.372;2022-10-18T08:30:47;22.30;78.10
73277;DHT22;61501;43.316;5.372;2022-10-18T08:33:12;22.40;77.80
73277;DHT22;61501;43.316;5.372;2022-10-18T08:35:38;22.40;77.50
73277;DHT22;61501;43.316;5.372;2022-10-18T08:38:04;22.50;77.10
73277;DHT22;61501;43.316;5.372;2022-10-18T08:40:40;22.60;76.60
73277;DHT22;61501;43.316;5.372;2022-10-18T08:43:23;22.60;76.20
73277;DHT22;61501;43.316;5.372;2022-10-18T08:45:50;22.60;76.70
73277;DHT22;61501;43.316;5.372;2022-10-18T08:48:29;22.60;76.40
73277;DHT22;61501;43.316;5.372;2022-10-18T08:50:57;22.40;76.50
73277;DHT22;61501;43.316;5.372;2022-10-18T08:53:31;22.30;76.80
73277;DHT22;61501;43.316;5.372;2022-10-18T08:56:06;22.40;77.30
73277;DHT22;61501;43.316;5.372;2022-10-18T08:58:41;22.40;77.50
73277;DHT22;61501;43.316;5.372;2022-10-18T09:04:26;22.60;76.60
73277;DHT22;61501;43.316;5.372;2022-10-18T09:09:37;22.70;77.00
73277;DHT22;61501;43.316;5.372;2022-10-18T09:12:37;22.90;76.60
73277;DHT22;61501;43.316;5.372;2022-10-18T09:20:24;23.10;75.60
73277;DHT22;61501;43.316;5.372;2022-10-18T09:22:55;23.10;75.00
73277;DHT22;61501;43.316;5.372;2022-10-18T09:28:23;22.90;75.90
73277;DHT22;61501;43.316;5.372;2022-10-18T09:31:06;23.00;75.70
73277;DHT22;61501;43.316;5.372;2022-10-18T09:36:25;23.00;74.70
73277;DHT22;61501;43.316;5.372;2022-10-18T09:38:58;22.90;75.10
73277;DHT22;61501;43.316;5.372;2022-10-18T09:44:24;22.80;75.60
73277;DHT22;61501;43.316;5.372;2022-10-18T09:47:01;22.70;76.20
73277;DHT22;61501;43.316;5.372;2022-10-18T09:49:44;22.60;76.10
73277;DHT22;61501;43.316;5.372;2022-10-18T09:52:18;22.60;76.70
73277;DHT22;61501;43.316;5.372;2022-10-18T09:54:50;22.50;77.10
73277;DHT22;61501;43.316;5.372;2022-10-18T09:57:36;22.60;77.40
73277;DHT22;61501;43.316;5.372;2022-10-18T10:00:09;22.60;77.80
73277;DHT22;61501;43.316;5.372;2022-10-18T10:02:38;22.50;78.20
73277;DHT22;61501;43.316;5.372;2022-10-18T10:05:08;22.60;78.80
73277;DHT22;61501;43.316;5.372;2022-10-18T10:07:41;22.60;79.50
73277;DHT22;61501;43.316;5.372;2022-10-18T10:10:16;22.60;79.90
73277;DHT22;61501;43.316;5.372;2022-10-18T10:12:44;22.60;80.20
73277;DHT22;61501;43.316;5.372;2022-10-18T10:21:24;22.60;81.60
73277;DHT22;61501;43.316;5.372;2022-10-18T10:23:53;22.60;81.90
73277;DHT22;61501;43.316;5.372;2022-10-18T10:28:48;22.60;82.80
73277;DHT22;61501;43.316;5.372;2022-10-18T10:36:30;22.50;83.40
73277;DHT22;61501;43.316;5.372;2022-10-18T10:39:12;22.50;83.80
73277;DHT22;61501;43.316;5.372;2022-10-18T10:41:40;22.50;84.50
73277;DHT22;61501;43.316;5.372;2022-10-18T10:44:17;22.50;84.90
73277;DHT22;61501;43.316;5.372;2022-10-18T10:46:44;22.50;84.40
73277;DHT22;61501;43.316;5.372;2022-10-18T10:49:17;22.50;84.40
73277;DHT22;61501;43.316;5.372;2022-10-18T10:51:44;22.50;84.60
73277;DHT22;61501;43.316;5.372;2022-10-18T10:54:18;22.50;84.10
73277;DHT22;61501;43.316;5.372;2022-10-18T10:59:29;22.60;83.40
73277;DHT22;61501;43.316;5.372;2022-10-18T11:04:44;22.60;84.10
73277;DHT22;61501;43.316;5.372;2022-10-18T11:10:14;22.60;84.00
73277;DHT22;61501;43.316;5.372;2022-10-18T11:12:42;22.70;84.30
73277;DHT22;61501;43.316;5.372;2022-10-18T11:20:09;22.50;84.70
73277;DHT22;61501;43.316;5.372;2022-10-18T11:22:52;22.50;85.40
73277;DHT22;61501;43.316;5.372;2022-10-18T11:25:24;22.50;86.00
73277;DHT22;61501;43.316;5.372;2022-10-18T11:27:54;22.50;86.50
73277;DHT22;61501;43.316;5.372;2022-10-18T11:35:46;22.70;87.10
73277;DHT22;61501;43.316;5.372;2022-10-18T11:41:18;23.70;84.60
73277;DHT22;61501;43.316;5.372;2022-10-18T11:44:15;25.30;78.30
73277;DHT22;61501;43.316;5.372;2022-10-18T11:47:03;26.80;72.00
73277;DHT22;61501;43.316;5.372;2022-10-18T11:52:52;29.70;62.20
73277;DHT22;61501;43.316;5.372;2022-10-18T11:55:40;29.60;61.80
73277;DHT22;61501;43.316;5.372;2022-10-18T11:58:50;29.60;63.10
73277;DHT22;61501;43.316;5.372;2022-10-18T12:01:35;29.60;63.70
73277;DHT22;61501;43.316;5.372;2022-10-18T12:04:16;29.30;64.60
73277;DHT22;61501;43.316;5.372;2022-10-18T12:06:45;29.00;65.10
73277;DHT22;61501;43.316;5.372;2022-10-18T12:09:29;28.90;66.30
73277;DHT22;61501;43.316;5.372;2022-10-18T12:12:17;28.70;67.00
73277;DHT22;61501;43.316;5.372;2022-10-18T12:14:45;28.80;66.20
73277;DHT22;61501;43.316;5.372;2022-10-18T12:19:56;29.50;62.70
73277;DHT22;61501;43.316;5.372;2022-10-18T12:22:37;29.50;61.40
73277;DHT22;61501;43.316;5.372;2022-10-18T12:25:08;29.30;63.10
73277;DHT22;61501;43.316;5.372;2022-10-18T12:33:01;26.90;74.80
73277;DHT22;61501;43.316;5.372;2022-10-18T12:35:33;26.40;77.80
73277;DHT22;61501;43.316;5.372;2022-10-18T12:38:25;26.60;78.40
73277;DHT22;61501;43.316;5.372;2022-10-18T12:40:54;26.80;77.50
73277;DHT22;61501;43.316;5.372;2022-10-18T12:43:28;26.60;77.80
73277;DHT22;61501;43.316;5.372;2022-10-18T12:46:05;27.00;78.70
73277;DHT22;61501;43.316;5.372;2022-10-18T12:48:35;27.80;74.30
73277;DHT22;61501;43.316;5.372;2022-10-18T13:17:42;29.00;66.80
73277;DHT22;61501;43.316;5.372;2022-10-18T13:20:42;29.10;68.20
73277;DHT22;61501;43.316;5.372;2022-10-18T13:26:00;29.50;64.50
73277;DHT22;61501;43.316;5.372;2022-10-18T13:28:36;28.90;65.90
73277;DHT22;61501;43.316;5.372;2022-10-18T13:33:34;29.60;64.20
73277;DHT22;61501;43.316;5.372;2022-10-18T13:41:22;29.90;64.50
73277;DHT22;61501;43.316;5.372;2022-10-18T13:48:59;29.60;66.00
73277;DHT22;61501;43.316;5.372;2022-10-18T14:08:16;29.10;66.90
73277;DHT22;61501;43.316;5.372;2022-10-18T14:13:54;29.80;64.80
73277;DHT22;61501;43.316;5.372;2022-10-18T14:19:25;30.00;62.80
73277;DHT22;61501;43.316;5.372;2022-10-18T14:21:58;30.00;62.40
73277;DHT22;61501;43.316;5.372;2022-10-18T14:24:29;29.60;63.30
73277;DHT22;61501;43.316;5.372;2022-10-18T14:27:14;29.90;64.20
73277;DHT22;61501;43.316;5.372;2022-10-18T14:29:40;30.20;62.80
73277;DHT22;61501;43.316;5.372;2022-10-18T14:32:17;30.00;63.90
73277;DHT22;61501;43.316;5.372;2022-10-18T14:34:46;29.70;63.80
73277;DHT22;61501;43.316;5.372;2022-10-18T14:37:41;29.80;65.20
73277;DHT22;61501;43.316;5.372;2022-10-18T14:40:58;29.80;64.20
73277;DHT22;61501;43.316;5.372;2022-10-18T14:43:18;29.70;64.50
73277;DHT22;61501;43.316;5.372;2022-10-18T14:45:44;30.10;63.50
73277;DHT22;61501;43.316;5.372;2022-10-18T14:48:20;30.30;63.80
73277;DHT22;61501;43.316;5.372;2022-10-18T14:50:53;31.00;61.10
73277;DHT22;61501;43.316;5.372;2022-10-18T14:53:32;30.80;61.10
73277;DHT22;61501;43.316;5.372;2022-10-18T14:56:02;31.00;60.30
73277;DHT22;61501;43.316;5.372;2022-10-18T14:58:33;31.20;59.70
73277;DHT22;61501;43.316;5.372;2022-10-18T15:01:00;31.60;59.10
73277;DHT22;61501;43.316;5.372;2022-10-18T15:03:25;31.60;59.30
73277;DHT22;61501;43.316;5.372;2022-10-18T15:05:53;31.30;59.20
73277;DHT22;61501;43.316;5.372;2022-10-18T15:08:20;30.60;61.50
73277;DHT22;61501;43.316;5.372;2022-10-18T15:10:47;30.80;61.40
73277;DHT22;61501;43.316;5.372;2022-10-18T15:13:14;31.00;59.90
73277;DHT22;61501;43.316;5.372;2022-10-18T15:15:40;32.40;57.20
73277;DHT22;61501;43.316;5.372;2022-10-18T15:18:19;32.30;56.50
73277;DHT22;61501;43.316;5.372;2022-10-18T15:21:06;31.90;57.60
73277;DHT22;61501;43.316;5.372;2022-10-18T15:23:32;33.30;54.90
73277;DHT22;61501;43.316;5.372;2022-10-18T15:26:06;32.20;56.50
73277;DHT22;61501;43.316;5.372;2022-10-18T15:28:38;32.20;57.50
73277;DHT22;61501;43.316;5.372;2022-10-18T15:31:04;32.10;57.80
73277;DHT22;61501;43.316;5.372;2022-10-18T15:33:31;33.00;55.10
73277;DHT22;61501;43.316;5.372;2022-10-18T15:36:10;33.30;54.20
73277;DHT22;61501;43.316;5.372;2022-10-18T15:38:37;33.20;54.00
73277;DHT22;61501;43.316;5.372;2022-10-18T15:41:37;32.40;55.30
73277;DHT22;61501;43.316;5.372;2022-10-18T15:46:50;32.80;55.20
73277;DHT22;61501;43.316;5.372;2022-10-18T15:51:54;32.80;55.10
73277;DHT22;61501;43.316;5.372;2022-10-18T15:54:35;32.40;56.00
73277;DHT22;61501;43.316;5.372;2022-10-18T15:57:08;31.20;58.50
73277;DHT22;61501;43.316;5.372;2022-10-18T15:59:35;29.40;64.20
73277;DHT22;61501;43.316;5.372;2022-10-18T16:02:03;27.70;69.90
73277;DHT22;61501;43.316;5.372;2022-10-18T16:04:30;26.50;76.30
73277;DHT22;61501;43.316;5.372;2022-10-18T16:06:57;25.60;80.10
73277;DHT22;61501;43.316;5.372;2022-10-18T16:09:26;25.50;81.20
73277;DHT22;61501;43.316;5.372;2022-10-18T16:11:52;25.30;81.60
73277;DHT22;61501;43.316;5.372;2022-10-18T16:14:19;25.00;86.60
73277;DHT22;61501;43.316;5.372;2022-10-18T16:16:45;24.70;87.20
73277;DHT22;61501;43.316;5.372;2022-10-18T16:19:15;24.30;89.70
73277;DHT22;61501;43.316;5.372;2022-10-18T16:21:43;24.00;91.00
73277;DHT22;61501;43.316;5.372;2022-10-18T16:24:09;23.80;92.40
73277;DHT22;61501;43.316;5.372;2022-10-18T16:26:35;23.90;92.30
73277;DHT22;61501;43.316;5.372;2022-10-18T16:29:02;24.00;92.70
73277;DHT22;61501;43.316;5.372;2022-10-18T16:31:29;23.90;93.20
73277;DHT22;61501;43.316;5.372;2022-10-18T16:33:56;23.70;93.80
73277;DHT22;61501;43.316;5.372;2022-10-18T16:38:48;23.40;95.90
73277;DHT22;61501;43.316;5.372;2022-10-18T16:41:14;23.40;95.40
73277;DHT22;61501;43.316;5.372;2022-10-18T16:43:45;23.30;96.20
73277;DHT22;61501;43.316;5.372;2022-10-18T16:46:20;23.10;97.20
73277;DHT22;61501;43.316;5.372;2022-10-18T16:48:46;22.90;98.50
73277;DHT22;61501;43.316;5.372;2022-10-18T16:51:13;22.80;98.10
73277;DHT22;61501;43.316;5.372;2022-10-18T16:53:38;22.70;99.00
73277;DHT22;61501;43.316;5.372;2022-10-18T16:56:05;22.60;99.50
73277;DHT22;61501;43.316;5.372;2022-10-18T16:58:35;22.60;99.40
73277;DHT22;61501;43.316;5.372;2022-10-18T17:01:00;22.50;99.90
73277;DHT22;61501;43.316;5.372;2022-10-18T17:03:26;22.50;99.90
73277;DHT22;61501;43.316;5.372;2022-10-18T17:05:52;22.50;99.90
73277;DHT22;61501;43.316;5.372;2022-10-18T17:08:20;22.50;99.90
73277;DHT22;61501;43.316;5.372;2022-10-18T17:10:47;22.50;99.90
73277;DHT22;61501;43.316;5.372;2022-10-18T17:13:14;22.40;99.90
73277;DHT22;61501;43.316;5.372;2022-10-18T17:15:40;22.40;99.90
73277;DHT22;61501;43.316;5.372;2022-10-18T17:18:12;22.30;99.90
73277;DHT22;61501;43.316;5.372;2022-10-18T17:20:39;22.20;99.90
73277;DHT22;61501;43.316;5.372;2022-10-18T17:23:05;22.10;99.90
73277;DHT22;61501;43.316;5.372;2022-10-18T17:25:31;22.10;99.90
73277;DHT22;61501;43.316;5.372;2022-10-18T17:27:56;22.10;99.90
73277;DHT22;61501;43.316;5.372;2022-10-18T17:30:22;22.10;99.90
73277;DHT22;61501;43.316;5.372;2022-10-18T17:32:47;22.20;99.90
73277;DHT22;61501;43.316;5.372;2022-10-18T17:35:13;22.10;99.90
73277;DHT22;61501;43.316;5.372;2022-10-18T17:37:39;22.10;99.90
73277;DHT22;61501;43.316;5.372;2022-10-18T17:40:06;22.00;99.90
73277;DHT22;61501;43.316;5.372;2022-10-18T17:42:32;22.00;99.90
73277;DHT22;61501;43.316;5.372;2022-10-18T17:44:58;21.90;99.90
73277;DHT22;61501;43.316;5.372;2022-10-18T17:47:24;21.90;99.90
73277;DHT22;61501;43.316;5.372;2022-10-18T17:49:49;21.80;99.90
73277;DHT22;61501;43.316;5.372;2022-10-18T17:52:15;21.80;99.90
73277;DHT22;61501;43.316;5.372;2022-10-18T17:54:41;21.80;99.90
73277;DHT22;61501;43.316;5.372;2022-10-18T17:57:07;21.70;99.90
73277;DHT22;61501;43.316;5.372;2022-10-18T17:59:32;21.70;99.90
73277;DHT22;61501;43.316;5.372;2022-10-18T18:01:58;21.70;99.90
73277;DHT22;61501;43.316;5.372;2022-10-18T18:04:23;21.70;99.90
73277;DHT22;61501;43.316;5.372;2022-10-18T18:06:52;21.70;99.90
73277;DHT22;61501;43.316;5.372;2022-10-18T18:09:18;21.70;99.90
73277;DHT22;61501;43.316;5.372;2022-10-18T18:11:44;21.70;99.90
73277;DHT22;61501;43.316;5.372;2022-10-18T18:14:13;21.70;99.90
73277;DHT22;61501;43.316;5.372;2022-10-18T18:16:42;21.70;99.90
73277;DHT22;61501;43.316;5.372;2022-10-18T18:19:08;21.70;99.90
73277;DHT22;61501;43.316;5.372;2022-10-18T18:21:35;21.70;99.90
73277;DHT22;61501;43.316;5.372;2022-10-18T18:24:01;21.70;99.90
73277;DHT22;61501;43.316;5.372;2022-10-18T18:26:50;21.70;99.90